Latest Weather Observations for Rosslyn Bay Harbour

IDQ60801

Issued at 3:32 am EST Sunday 26 June 2016 (issued every 30 minutes, with the page automatically refreshed every 10 minutes)

About weather observations | Map of weather stations | Latest weather observations for QLD | Other Formats
Station Details ID: 033208 Name: ROSSLYN BAY NTC AWS Lat: -23.16 Lon: 150.79 Height: 0.0 m
Data from the previous 72 hours. | See also: Recent months for locations in Queensland
Date/Time
EST
Temp
°C
App
Temp
°C
Dew
Point
°C
Rel
Hum
%
Delta-T
°C
Wind Press
QNH
hPa
Press
MSL
hPa
Rain since
9am
mm
Dir  Spd
km/h
Gust
km/h
Spd
kts
Gust
kts
26/03:30am 11.7 - - - - SSW 13 19 7 10 1017.8 1017.8 -
26/03:00am 11.9 - - - - SSW 15 22 8 12 1018.0 1018.0 -
26/02:30am 12.2 - - - - SSW 9 15 5 8 1018.0 1018.0 -
26/02:00am 13.1 - - - - S 6 11 3 6 1017.7 1017.7 -
26/01:30am 13.7 - - - - SSW 4 7 2 4 1017.7 1017.7 -
26/01:00am 13.7 - - - - SSW 6 9 3 5 1018.1 1018.1 -
26/12:30am 13.5 - - - - S 6 9 3 5 1018.2 1018.2 -
26/12:00am 13.5 - - - - S 7 13 4 7 1018.7 1018.7 -
 
Date/Time
EST
Temp
°C
App
Temp
°C
Dew
Point
°C
Rel
Hum
%
Delta-T
°C
Wind Press
QNH
hPa
Press
MSL
hPa
Rain since
9am
mm
Dir  Spd
km/h
Gust
km/h
Spd
kts
Gust
kts
25/11:30pm 14.3 - - - - S 9 13 5 7 1019.1 1019.1 -
25/11:00pm 14.2 - - - - WSW 4 6 2 3 1019.4 1019.4 -
25/10:30pm 14.7 - - - - W 4 4 2 2 1019.3 1019.3 -
25/10:00pm 14.9 - - - - SSW 4 6 2 3 1019.2 1019.2 -
25/09:30pm 16.3 - - - - S 4 6 2 3 1018.9 1018.9 -
25/09:00pm 15.3 - - - - SW 2 4 1 2 1018.7 1018.7 -
25/08:30pm 15.2 - - - - WSW 4 6 2 3 1018.7 1018.7 -
25/08:00pm 16.8 - - - - S 6 7 3 4 1018.8 1018.8 -
25/07:30pm 17.0 - - - - S 6 7 3 4 1018.6 1018.6 -
25/07:00pm 17.2 - - - - S 2 7 1 4 1018.2 1018.2 -
25/06:30pm 17.6 - - - - SSW 2 6 1 3 1017.8 1017.8 -
25/06:00pm 18.9 - - - - N 4 4 2 2 1017.5 1017.5 -
25/05:30pm 19.1 - - - - NNE 4 7 2 4 1017.5 1017.5 -
25/05:00pm 19.3 - - - - N 6 9 3 5 1017.5 1017.5 -
25/04:30pm 19.9 - - - - NNE 4 6 2 3 1017.2 1017.2 -
25/04:00pm 19.3 - - - - NE 4 7 2 4 1016.8 1016.8 -
25/03:30pm 18.8 - - - - S 4 9 2 5 1016.6 1016.6 -
25/03:00pm 18.4 - - - - S 7 13 4 7 1016.3 1016.3 -
25/02:30pm 18.0 - - - - S 11 17 6 9 1016.6 1016.6 -
25/02:00pm 17.9 - - - - S 9 19 5 10 1017.0 1017.0 -
25/01:30pm 17.4 - - - - S 15 22 8 12 1017.3 1017.3 -
25/01:00pm 17.6 - - - - S 13 20 7 11 1017.7 1017.7 -
25/12:30pm 17.8 - - - - SSE 11 20 6 11 1018.2 1018.2 -
25/12:00pm 18.0 - - - - SW 9 19 5 10 1018.7 1018.7 -
25/11:30am 17.5 - - - - SSW 11 20 6 11 1019.2 1019.2 -
25/11:00am - - - - - S 6 13 3 7 1019.6 1019.6 -
25/10:30am - - - - - SSW 11 19 6 10 1019.9 1019.9 -
25/10:00am - - - - - SSW 9 17 5 9 1020.1 1020.1 -
25/09:30am - - - - - SSW 15 24 8 13 1020.2 1020.2 -
25/09:00am - - - - - SSW 22 32 12 17 1019.9 1019.9 -
25/08:30am - - - - - SSW 15 22 8 12 1019.6 1019.6 -
25/08:00am - - - - - SSW 11 20 6 11 1019.6 1019.6 -
25/07:30am - - - - - SSW 15 24 8 13 1019.1 1019.1 -
25/07:00am - - - - - SSW 7 13 4 7 1018.9 1018.9 -
25/06:30am - - - - - SSW 6 11 3 6 1018.6 1018.6 -
25/06:00am - - - - - S 6 11 3 6 1018.3 1018.3 -
25/05:30am - - - - - SSE 4 11 2 6 1017.9 1017.9 -
25/05:00am - - - - - SSW 7 17 4 9 1017.4 1017.4 -
25/04:30am - - - - - SSW 11 20 6 11 1016.9 1016.9 -
25/04:00am - - - - - SSW 20 30 11 16 1016.5 1016.5 -
25/03:30am - - - - - SSW 19 28 10 15 1016.3 1016.3 -
25/03:00am - - - - - SSW 19 30 10 16 1016.1 1016.1 -
25/02:30am - - - - - SSW 17 32 9 17 1016.2 1016.2 -
25/02:00am - - - - - SSW 17 24 9 13 1016.1 1016.1 -
25/01:30am - - - - - S 11 19 6 10 1016.1 1016.1 -
25/01:00am - - - - - SSW 13 17 7 9 1016.1 1016.1 -
25/12:30am - - - - - SSW 11 17 6 9 1015.9 1015.9 -
25/12:00am - - - - - SW 7 9 4 5 1015.4 1015.4 -
 
Date/Time
EST
Temp
°C
App
Temp
°C
Dew
Point
°C
Rel
Hum
%
Delta-T
°C
Wind Press
QNH
hPa
Press
MSL
hPa
Rain since
9am
mm
Dir  Spd
km/h
Gust
km/h
Spd
kts
Gust
kts
24/11:30pm - - - - - SW 6 9 3 5 1015.3 1015.3 -
24/11:00pm - - - - - SW 6 9 3 5 1015.3 1015.3 -
24/10:30pm - - - - - SSW 4 7 2 4 1015.4 1015.4 -
24/10:00pm - - - - - WSW 2 4 1 2 1015.3 1015.3 -
24/09:30pm - - - - - WSW 4 7 2 4 1015.4 1015.4 -
24/09:00pm - - - - - SSW 7 9 4 5 1015.2 1015.2 -
24/08:30pm - - - - - SSW 7 11 4 6 1015.1 1015.1 -
24/08:00pm - - - - - S 6 9 3 5 1014.8 1014.8 -
24/07:30pm - - - - - N 2 2 1 1 1014.5 1014.5 -
24/07:00pm - - - - - SSW 6 7 3 4 1014.2 1014.2 -
24/06:30pm - - - - - SSW 7 9 4 5 1013.7 1013.7 -
24/06:00pm - - - - - SSW 6 7 3 4 1013.3 1013.3 -
24/05:30pm - - - - - SSW 7 11 4 6 1012.8 1012.8 -
24/05:00pm - - - - - SW 6 9 3 5 1012.7 1012.7 -
24/04:30pm - - - - - SSW 11 15 6 8 1012.5 1012.5 -
24/04:00pm - - - - - SSW 19 24 10 13 1012.0 1012.0 -
24/03:30pm - - - - - WSW 13 22 7 12 1011.6 1011.6 -
24/03:00pm - - - - - SW 15 24 8 13 1011.4 1011.4 -
24/02:30pm - - - - - SW 15 28 8 15 1011.6 1011.6 -
24/02:00pm - - - - - SW 11 20 6 11 1011.5 1011.5 -
24/01:30pm - - - - - SW 15 24 8 13 1011.6 1011.6 -
24/01:00pm - - - - - W 9 19 5 10 1011.9 1011.9 -
24/12:30pm - - - - - WNW 9 17 5 9 1012.3 1012.3 -
24/12:00pm - - - - - WSW 11 19 6 10 1013.0 1013.0 -
24/11:30am - - - - - WNW 9 17 5 9 1013.5 1013.5 -
24/11:00am - - - - - WNW 13 20 7 11 1014.1 1014.1 -
24/10:30am - - - - - NE 4 9 2 5 1014.3 1014.3 -
24/10:00am - - - - - NE 6 7 3 4 1014.5 1014.5 -
24/09:30am - - - - - NE 4 6 2 3 1014.7 1014.7 -
24/09:00am - - - - - CALM 0 2 0 1 1014.7 1014.7 -
24/08:30am - - - - - WSW 2 6 1 3 1014.6 1014.6 -
24/08:00am - - - - - W 2 2 1 1 1014.1 1014.1 -
24/07:30am - - - - - NNW 2 4 1 2 1014.0 1014.0 -
24/07:00am - - - - - NNW 2 4 1 2 1013.8 1013.8 -
24/06:30am - - - - - N 2 4 1 2 1013.4 1013.4 -
24/06:00am - - - - - SW 4 4 2 2 1013.4 1013.4 -
24/05:30am - - - - - N 4 6 2 3 1013.1 1013.1 -
24/05:00am - - - - - CALM 0 2 0 1 1013.0 1013.0 -
24/04:30am - - - - - SSW 2 2 1 1 1013.0 1013.0 -
24/04:00am - - - - - SSW 4 4 2 2 1012.8 1012.8 -
24/03:30am - - - - - NNE 4 6 2 3 1012.5 1012.5 -
24/03:00am - - - - - N 2 2 1 1 1012.8 1012.8 -
24/02:30am - - - - - SSW 2 6 1 3 1013.1 1013.1 -
24/02:00am - - - - - SSW 2 4 1 2 1013.4 1013.4 -
24/01:30am - - - - - NNW 2 4 1 2 1013.4 1013.4 -
24/01:00am - - - - - N 4 7 2 4 1013.3 1013.3 -
24/12:30am - - - - - N 6 7 3 4 1013.3 1013.3 -
24/12:00am - - - - - N 7 11 4 6 1013.5 1013.5 -
 
Date/Time
EST
Temp
°C
App
Temp
°C
Dew
Point
°C
Rel
Hum
%
Delta-T
°C
Wind Press
QNH
hPa
Press
MSL
hPa
Rain since
9am
mm
Dir  Spd
km/h
Gust
km/h
Spd
kts
Gust
kts
23/11:30pm - - - - - WSW 2 6 1 3 1014.0 1014.0 -
23/11:00pm - - - - - N 6 9 3 5 1014.1 1014.1 -
23/10:30pm - - - - - N 9 11 5 6 1013.9 1013.9 -
23/10:00pm - - - - - N 7 13 4 7 1013.8 1013.8 -
23/09:30pm - - - - - N 11 17 6 9 1013.8 1013.8 -
23/09:00pm - - - - - NNE 15 20 8 11 1013.4 1013.4 -
23/08:30pm - - - - - NNE 6 9 3 5 1014.0 1014.0 -
23/08:00pm - - - - - NE 6 9 3 5 1014.2 1014.2 -
23/07:30pm - - - - - ENE 6 9 3 5 1014.0 1014.0 -
23/07:00pm - - - - - E 7 9 4 5 1013.5 1013.5 -
23/06:30pm - - - - - E 9 13 5 7 1013.0 1013.0 -
23/06:00pm - - - - - ENE 9 13 5 7 1012.6 1012.6 -
23/05:30pm - - - - - ENE 11 15 6 8 1012.4 1012.4 -
23/05:00pm - - - - - ENE 6 11 3 6 1011.9 1011.9 -
23/04:30pm - - - - - ENE 7 11 4 6 1012.1 1012.1 -
23/04:00pm - - - - - NE 4 11 2 6 1012.0 1012.0 -
23/03:30pm - - - - - E 4 9 2 5 1012.1 1012.1 -
23/03:00pm - - - - - SSW 6 11 3 6 1012.1 1012.1 -
23/02:30pm - - - - - S 9 15 5 8 1012.5 1012.5 -
23/02:00pm - - - - - S 7 13 4 7 1012.8 1012.8 -
23/01:30pm - - - - - S 11 19 6 10 1013.3 1013.3 -
23/01:00pm - - - - - S 13 19 7 10 1013.8 1013.8 -
23/12:30pm - - - - - S 15 19 8 10 1014.3 1014.3 -
23/12:00pm - - - - - S 11 15 6 8 1014.9 1014.9 -
23/11:30am - - - - - S 11 15 6 8 1015.4 1015.4 -
23/11:00am - - - - - S 9 13 5 7 1015.7 1015.7 -
23/10:30am - - - - - S 6 9 3 5 1016.0 1016.0 -
23/10:00am - - - - - SSE 6 7 3 4 1016.2 1016.2 -
23/09:30am - - - - - SSE 4 6 2 3 1016.0 1016.0 -
23/09:00am - - - - - S 2 4 1 2 1015.8 1015.8 -
23/08:30am - - - - - SSW 2 6 1 3 1015.5 1015.5 -
23/08:00am - - - - - S 7 9 4 5 1015.5 1015.5 -
23/07:30am - - - - - SSW 2 4 1 2 1015.3 1015.3 -
23/07:00am - - - - - NW 2 6 1 3 1015.2 1015.2 -
23/06:30am - - - - - SSW 6 7 3 4 1015.0 1015.0 -
23/06:00am - - - - - S 7 11 4 6 1015.0 1015.0 -
23/05:30am - - - - - SSW 4 7 2 4 1014.5 1014.5 -
23/05:00am - - - - - WSW 4 4 2 2 1014.2 1014.2 -
23/04:30am - - - - - S 2 6 1 3 1014.1 1014.1 -
23/04:00am - - - - - S 7 13 4 7 1014.2 1014.2 -

Other Formats:

Comma delimited format used in spreadsheet applications
http://www.bom.gov.au/fwo/IDQ60801/IDQ60801.95298.axf

JavaScript Object Notation format (JSON) in row-major order
http://www.bom.gov.au/fwo/IDQ60801/IDQ60801.95298.json